createdAt,value
2017-11-04T00:01:33.690Z,6.40
2017-11-04T00:04:01.429Z,6.40
2017-11-04T00:06:28.898Z,6.40
2017-11-04T00:08:56.650Z,6.40
2017-11-04T00:11:24.138Z,6.50
2017-11-04T00:13:51.768Z,6.50
2017-11-04T00:16:19.241Z,6.50
2017-11-04T00:18:46.741Z,6.40
2017-11-04T00:21:14.981Z,6.10
2017-11-04T00:23:43.221Z,6.10
2017-11-04T00:26:10.714Z,6.10
2017-11-04T00:28:38.189Z,6.00
2017-11-04T00:31:05.701Z,6.00
2017-11-04T00:33:33.183Z,6.00
2017-11-04T00:36:00.925Z,5.90
2017-11-04T00:38:28.417Z,5.90
2017-11-04T00:40:55.893Z,5.80
2017-11-04T00:43:24.151Z,5.60
2017-11-04T00:45:51.632Z,5.60
2017-11-04T00:48:19.873Z,5.60
2017-11-04T00:50:47.365Z,5.50
2017-11-04T00:53:15.605Z,5.50
2017-11-04T00:55:43.077Z,5.50
2017-11-04T00:58:10.565Z,5.50
2017-11-04T01:00:38.797Z,5.40
2017-11-04T01:03:06.265Z,5.40
2017-11-04T01:05:33.762Z,5.40
2017-11-04T01:08:01.235Z,5.40
2017-11-04T01:10:28.723Z,5.30
2017-11-04T01:12:56.208Z,5.20
2017-11-04T01:15:24.445Z,4.80
2017-11-04T01:17:52.299Z,4.80
2017-11-04T01:20:20.062Z,4.90
2017-11-04T01:22:47.534Z,4.90
2017-11-04T01:25:15.033Z,5.00
2017-11-04T01:27:43.264Z,4.70
2017-11-04T01:30:10.733Z,4.70
2017-11-04T01:32:38.222Z,4.70
2017-11-04T01:35:06.462Z,4.70
2017-11-04T01:37:34.202Z,4.60
2017-11-04T01:40:01.694Z,4.70
2017-11-04T01:42:29.165Z,4.70
2017-11-04T01:44:56.634Z,4.70
2017-11-04T01:47:24.893Z,4.70
2017-11-04T01:49:52.358Z,4.70
2017-11-04T01:52:20.593Z,4.80
2017-11-04T01:54:48.081Z,4.70
2017-11-04T01:57:15.550Z,4.80
2017-11-04T01:59:43.785Z,4.80
2017-11-04T02:02:11.278Z,4.70
2017-11-04T02:04:38.749Z,4.70
2017-11-04T02:07:07.002Z,4.80
2017-11-04T02:09:34.502Z,4.80
2017-11-04T02:12:01.974Z,4.70
2017-11-04T02:14:29.446Z,4.70
2017-11-04T02:16:56.958Z,4.70
2017-11-04T02:19:25.274Z,4.80
2017-11-04T02:21:52.749Z,4.70
2017-11-04T02:24:21.005Z,4.70
2017-11-04T02:26:48.485Z,4.60
2017-11-04T02:29:15.976Z,4.70
2017-11-04T02:31:44.217Z,4.70
2017-11-04T02:34:11.702Z,4.70
2017-11-04T02:36:40.229Z,4.70
2017-11-04T02:39:07.994Z,4.70
2017-11-04T02:41:35.497Z,4.70
2017-11-04T02:44:02.982Z,4.70
2017-11-04T02:46:30.462Z,4.70
2017-11-04T02:48:58.685Z,4.70
2017-11-04T02:51:26.178Z,4.50
2017-11-04T02:53:53.666Z,4.40
2017-11-04T02:56:21.161Z,4.30
2017-11-04T02:58:48.641Z,4.30
2017-11-04T03:01:16.198Z,4.30
2017-11-04T03:03:43.703Z,4.40
2017-11-04T03:06:11.184Z,4.30
2017-11-04T03:08:38.701Z,4.40
2017-11-04T03:11:06.181Z,4.40
2017-11-04T03:13:33.687Z,4.40
2017-11-04T03:16:01.174Z,4.40
2017-11-04T03:18:30.345Z,4.40
2017-11-04T03:20:58.132Z,4.40
2017-11-04T03:23:25.606Z,4.40
2017-11-04T03:25:53.083Z,4.40
2017-11-04T03:28:20.574Z,4.40
2017-11-04T03:30:48.809Z,4.40
2017-11-04T03:33:16.292Z,4.40
2017-11-04T03:35:44.822Z,4.30
2017-11-04T03:38:12.306Z,4.30
2017-11-04T03:40:39.802Z,4.30
2017-11-04T03:43:08.037Z,4.40
2017-11-04T03:45:35.514Z,4.40
2017-11-04T03:48:03.011Z,4.40
2017-11-04T03:50:30.481Z,4.50
2017-11-04T03:52:57.956Z,4.50
2017-11-04T03:55:26.213Z,4.50
2017-11-04T03:57:53.686Z,4.40
2017-11-04T04:00:21.161Z,4.40
2017-11-04T04:02:48.694Z,4.40
2017-11-04T04:05:16.200Z,4.50
2017-11-04T04:07:44.484Z,4.40
2017-11-04T04:10:12.295Z,4.40
2017-11-04T04:12:39.770Z,4.50
2017-11-04T04:15:07.241Z,4.50
2017-11-04T04:17:34.734Z,4.50
2017-11-04T04:20:02.207Z,4.50
2017-11-04T04:22:29.678Z,4.40
2017-11-04T04:24:57.170Z,4.50
2017-11-04T04:27:24.634Z,4.40
2017-11-04T04:29:52.105Z,4.50
2017-11-04T04:32:20.398Z,4.30
2017-11-04T04:34:47.902Z,4.30
2017-11-04T04:37:15.377Z,4.30
2017-11-04T04:39:42.871Z,4.20
2017-11-04T04:42:10.357Z,4.20
2017-11-04T04:44:38.141Z,4.20
2017-11-04T04:47:05.614Z,4.20
2017-11-04T04:49:33.083Z,4.30
2017-11-04T04:52:01.342Z,4.40
2017-11-04T04:54:28.809Z,4.40
2017-11-04T04:56:56.301Z,4.50
2017-11-04T04:59:23.770Z,4.60
2017-11-04T05:01:51.238Z,4.60
2017-11-04T05:04:19.494Z,4.50
2017-11-04T05:06:46.972Z,4.50
2017-11-04T05:09:14.482Z,4.50
2017-11-04T05:11:41.969Z,4.50
2017-11-04T05:14:09.445Z,4.40
2017-11-04T05:16:36.941Z,4.40
2017-11-04T05:19:04.413Z,4.50
2017-11-04T05:21:32.658Z,4.50
2017-11-04T05:24:00.149Z,4.50
2017-11-04T05:26:28.393Z,4.60
2017-11-04T05:28:56.122Z,4.60
2017-11-04T05:31:23.606Z,4.80
2017-11-04T05:33:51.075Z,4.70
2017-11-04T05:36:18.572Z,4.70
2017-11-04T05:38:46.046Z,4.70
2017-11-04T05:41:13.521Z,4.70
2017-11-04T05:43:41.009Z,4.80
2017-11-04T05:46:08.481Z,4.70
2017-11-04T05:48:36.740Z,4.90
2017-11-04T05:51:04.213Z,4.80
2017-11-04T05:53:32.449Z,4.90
2017-11-04T05:55:59.937Z,4.90
2017-11-04T05:58:27.410Z,4.90
2017-11-04T06:00:55.674Z,5.00
2017-11-04T06:03:23.909Z,5.10
2017-11-04T06:05:51.386Z,5.00
2017-11-04T06:08:18.874Z,5.10
2017-11-04T06:10:47.115Z,5.10
2017-11-04T06:13:14.629Z,5.10
2017-11-04T06:15:42.106Z,5.00
2017-11-04T06:18:09.579Z,4.90
2017-11-04T06:20:37.317Z,4.90
2017-11-04T06:23:04.794Z,5.00
2017-11-04T06:25:32.266Z,5.00
2017-11-04T06:27:59.761Z,5.00
2017-11-04T06:30:27.238Z,5.00
2017-11-04T06:32:54.712Z,5.10
2017-11-04T06:35:22.213Z,5.10
2017-11-04T06:37:50.457Z,5.30
2017-11-04T06:40:17.938Z,5.30
2017-11-04T06:42:45.425Z,5.30
2017-11-04T06:45:12.902Z,5.30
2017-11-04T06:47:40.398Z,5.30
2017-11-04T06:50:07.875Z,5.30
2017-11-04T06:52:36.114Z,5.30
2017-11-04T06:55:03.612Z,5.30
2017-11-04T06:57:31.934Z,5.30
2017-11-04T06:59:59.493Z,5.30
2017-11-04T07:02:27.359Z,5.40
2017-11-04T07:04:54.923Z,5.50
2017-11-04T07:07:22.397Z,5.50
2017-11-04T07:09:50.649Z,5.60
2017-11-04T07:12:18.129Z,5.60
2017-11-04T07:14:46.393Z,5.80
2017-11-04T07:17:13.865Z,5.80
2017-11-04T07:19:41.345Z,6.00
2017-11-04T07:22:08.893Z,6.00
2017-11-04T07:24:36.361Z,6.00
2017-11-04T07:27:03.834Z,6.00
2017-11-04T07:29:31.630Z,6.10
2017-11-04T07:31:59.183Z,6.10
2017-11-04T07:34:26.730Z,6.20
2017-11-04T07:36:54.203Z,6.20
2017-11-04T07:39:21.673Z,6.30
2017-11-04T07:41:49.166Z,6.40
2017-11-04T07:44:16.645Z,6.50
2017-11-04T07:46:44.886Z,6.70
2017-11-04T07:49:12.374Z,6.70
2017-11-04T07:51:40.617Z,7.00
2017-11-04T07:54:08.109Z,6.90
2017-11-04T07:56:36.348Z,7.20
2017-11-04T07:59:03.821Z,7.20
2017-11-04T08:01:31.309Z,7.30
2017-11-04T08:03:59.545Z,7.50
2017-11-04T08:06:27.016Z,7.50
2017-11-04T08:08:54.510Z,7.60
2017-11-04T08:11:21.985Z,7.70
2017-11-04T08:13:49.454Z,7.80
2017-11-04T08:16:16.946Z,7.90
2017-11-04T08:18:44.422Z,8.00
2017-11-04T08:21:12.682Z,8.10
2017-11-04T08:23:40.150Z,8.10
2017-11-04T08:26:08.390Z,8.40
2017-11-04T08:28:35.937Z,8.40
2017-11-04T08:31:04.173Z,8.50
2017-11-04T08:33:31.642Z,8.60
2017-11-04T08:35:59.151Z,8.70
2017-11-04T08:38:26.650Z,8.70
2017-11-04T08:40:54.122Z,8.80
2017-11-04T08:43:21.613Z,8.90
2017-11-04T08:45:49.102Z,9.00
2017-11-04T08:48:17.337Z,9.10
2017-11-04T08:50:44.833Z,9.10
2017-11-04T08:53:13.101Z,9.20
2017-11-04T08:55:41.442Z,9.20
2017-11-04T08:58:08.905Z,9.20
2017-11-04T09:00:36.378Z,9.40
2017-11-04T09:03:05.721Z,9.50
2017-11-04T09:05:33.193Z,9.60
2017-11-04T09:08:00.662Z,9.90
2017-11-04T09:10:28.153Z,10.00
2017-11-04T09:12:55.625Z,10.20
2017-11-04T09:15:23.861Z,10.50
2017-11-04T09:17:51.390Z,10.50
2017-11-04T09:20:18.938Z,10.60
2017-11-04T09:22:46.409Z,10.70
2017-11-04T09:25:13.909Z,10.90
2017-11-04T09:27:41.390Z,10.80
2017-11-04T09:30:09.630Z,11.40
2017-11-04T09:32:37.372Z,11.40
2017-11-04T09:35:04.842Z,11.60
2017-11-04T09:37:32.310Z,11.80
2017-11-04T09:39:59.805Z,11.90
2017-11-04T09:42:28.041Z,12.40
2017-11-04T09:44:55.875Z,12.40
2017-11-04T09:47:23.442Z,12.60
2017-11-04T09:49:50.913Z,12.70
2017-11-04T09:52:18.451Z,12.90
2017-11-04T09:54:45.960Z,13.10
2017-11-04T09:57:13.627Z,13.30
2017-11-04T09:59:41.895Z,13.80
2017-11-04T10:02:09.410Z,13.80
2017-11-04T10:04:36.905Z,14.20
2017-11-04T10:07:04.378Z,14.50
2017-11-04T10:09:31.853Z,14.90
2017-11-04T10:12:00.218Z,15.30
2017-11-04T10:14:28.614Z,15.10
2017-11-04T10:16:56.088Z,15.10
2017-11-04T10:19:23.581Z,15.10
2017-11-04T10:21:51.053Z,15.10
2017-11-04T10:24:18.526Z,15.00
2017-11-04T10:26:46.841Z,15.60
2017-11-04T10:29:14.322Z,15.50
2017-11-04T10:31:41.797Z,15.30
2017-11-04T10:34:09.523Z,15.20
2017-11-04T10:36:36.994Z,15.30
2017-11-04T10:39:04.486Z,15.50
2017-11-04T10:41:32.290Z,15.70
2017-11-04T10:43:59.968Z,15.80
2017-11-04T10:46:27.470Z,15.80
2017-11-04T10:48:54.942Z,15.90
2017-11-04T10:51:23.553Z,16.70
2017-11-04T10:53:52.350Z,17.30
2017-11-04T10:56:19.828Z,17.30
2017-11-04T10:58:47.530Z,17.50
2017-11-04T11:01:15.794Z,16.90
2017-11-04T11:03:44.457Z,17.20
2017-11-04T11:06:12.742Z,17.30
2017-11-04T11:08:40.216Z,17.30
2017-11-04T11:11:07.706Z,18.00
2017-11-04T11:13:35.485Z,18.50
2017-11-04T11:16:02.961Z,18.00
2017-11-04T11:18:30.784Z,17.80
2017-11-04T11:20:58.325Z,18.60
2017-11-04T11:23:26.573Z,18.60
2017-11-04T11:25:54.073Z,18.50
2017-11-04T11:28:21.563Z,18.60
2017-11-04T11:30:49.320Z,18.80
2017-11-04T11:33:16.813Z,18.50
2017-11-04T11:35:44.541Z,18.70
2017-11-04T11:38:12.032Z,18.20
2017-11-04T11:40:39.534Z,18.60
2017-11-04T11:43:09.598Z,19.90
2017-11-04T11:45:37.089Z,19.90
2017-11-04T11:48:05.338Z,21.00
2017-11-04T11:50:32.810Z,21.00
2017-11-04T11:53:01.150Z,20.20
2017-11-04T11:55:28.729Z,20.20
2017-11-04T11:57:56.238Z,20.70
2017-11-04T12:00:24.030Z,21.00
2017-11-04T12:02:51.563Z,21.10
2017-11-04T12:05:19.071Z,20.50
2017-11-04T12:07:46.568Z,20.40
2017-11-04T12:10:14.046Z,20.40
2017-11-04T12:12:41.575Z,20.40
2017-11-04T12:15:09.847Z,19.70
2017-11-04T12:17:38.122Z,19.60
2017-11-04T12:20:06.426Z,19.70
2017-11-04T12:22:33.932Z,19.70
2017-11-04T12:25:01.446Z,19.60
2017-11-04T12:27:28.983Z,19.40
2017-11-04T12:29:57.225Z,18.80
2017-11-04T12:32:24.707Z,18.70
2017-11-04T12:34:53.330Z,18.70
2017-11-04T12:37:20.915Z,18.70
2017-11-04T12:39:48.390Z,18.50
2017-11-04T12:42:15.877Z,18.20
2017-11-04T12:44:43.353Z,17.70
2017-11-04T12:47:10.849Z,17.70
2017-11-04T12:49:40.059Z,17.80
2017-11-04T12:52:08.487Z,18.00
2017-11-04T12:54:36.265Z,18.00
2017-11-04T12:57:04.137Z,18.10
2017-11-04T12:59:31.739Z,18.50
2017-11-04T13:01:59.264Z,18.80
2017-11-04T13:04:26.732Z,18.90
2017-11-04T13:06:54.465Z,19.10
2017-11-04T13:09:21.934Z,19.10
2017-11-04T13:11:49.654Z,19.00
2017-11-04T13:14:17.165Z,19.00
2017-11-04T13:16:44.637Z,19.00
2017-11-04T13:19:12.107Z,19.10
2017-11-04T13:21:39.603Z,18.60
2017-11-04T13:24:07.088Z,18.80
2017-11-04T13:26:34.568Z,18.90
2017-11-04T13:29:02.068Z,18.80
2017-11-04T13:31:29.549Z,18.70
2017-11-04T13:33:57.021Z,18.90
2017-11-04T13:36:27.833Z,19.00
2017-11-04T13:38:55.309Z,19.10
2017-11-04T13:41:23.778Z,19.00
2017-11-04T13:44:05.430Z,19.10
2017-11-04T13:46:34.997Z,18.90
2017-11-04T13:49:02.469Z,18.90
2017-11-04T13:51:29.938Z,18.60
2017-11-04T13:53:58.193Z,18.10
2017-11-04T13:56:25.661Z,18.00
2017-11-04T13:58:53.885Z,18.20
2017-11-04T14:01:23.249Z,18.00
2017-11-04T14:03:51.486Z,18.00
2017-11-04T14:06:18.977Z,18.00
2017-11-04T14:08:47.221Z,18.30
2017-11-04T14:11:14.754Z,18.30
2017-11-04T14:13:42.328Z,18.20
2017-11-04T14:16:09.856Z,18.10
2017-11-04T14:18:37.366Z,18.30
2017-11-04T14:21:04.901Z,18.30
2017-11-04T14:23:32.411Z,18.40
2017-11-04T14:26:00.691Z,19.00
2017-11-04T14:28:28.982Z,19.20
2017-11-04T14:30:56.461Z,19.20
2017-11-04T14:33:23.949Z,19.20
2017-11-04T14:35:51.428Z,19.20
2017-11-04T14:38:19.670Z,19.40
2017-11-04T14:40:47.928Z,19.40
2017-11-04T14:43:15.418Z,19.30
2017-11-04T14:45:42.895Z,18.90
2017-11-04T14:48:11.205Z,18.70
2017-11-04T14:50:38.677Z,18.70
2017-11-04T14:53:06.437Z,18.70
2017-11-04T14:55:33.925Z,18.40
2017-11-04T14:58:01.398Z,18.40
2017-11-04T15:00:29.639Z,18.20
2017-11-04T15:02:57.161Z,18.10
2017-11-04T15:05:24.634Z,18.30
2017-11-04T15:07:52.108Z,18.10
2017-11-04T15:10:19.598Z,18.00
2017-11-04T15:12:47.096Z,17.90
2017-11-04T15:15:14.569Z,17.90
2017-11-04T15:17:42.053Z,17.80
2017-11-04T15:20:09.521Z,17.60
2017-11-04T15:22:37.018Z,17.50
2017-11-04T15:25:04.500Z,17.50
2017-11-04T15:27:31.972Z,17.40
2017-11-04T15:29:59.718Z,17.20
2017-11-04T15:32:27.200Z,17.00
2017-11-04T15:34:54.679Z,16.90
2017-11-04T15:37:22.178Z,16.80
2017-11-04T15:39:49.654Z,16.60
2017-11-04T15:42:17.122Z,16.40
2017-11-04T15:44:44.936Z,16.20
2017-11-04T15:47:13.315Z,16.00
2017-11-04T15:49:40.839Z,15.90
2017-11-04T15:52:08.449Z,15.80
2017-11-04T15:54:35.926Z,15.60
2017-11-04T15:57:03.413Z,15.60
2017-11-04T15:59:30.963Z,15.60
2017-11-04T16:01:58.458Z,15.50
2017-11-04T16:04:26.694Z,15.20
2017-11-04T16:06:54.438Z,15.30
2017-11-04T16:09:22.489Z,15.10
2017-11-04T16:11:50.273Z,14.90
2017-11-04T16:14:17.766Z,14.80
2017-11-04T16:16:45.241Z,14.60
2017-11-04T16:19:13.526Z,14.30
2017-11-04T16:21:41.033Z,14.30
2017-11-04T16:24:08.505Z,14.20
2017-11-04T16:26:36.003Z,14.00
2017-11-04T16:29:04.246Z,13.80
2017-11-04T16:31:31.718Z,13.80
2017-11-04T16:33:59.209Z,13.80
2017-11-04T16:36:26.693Z,13.80
2017-11-04T16:38:54.170Z,13.70
2017-11-04T16:41:21.670Z,13.70
2017-11-04T16:43:49.465Z,13.50
2017-11-04T16:46:16.950Z,13.40
2017-11-04T16:48:44.442Z,13.40
2017-11-04T16:51:12.691Z,13.30
2017-11-04T16:53:40.295Z,13.30
2017-11-04T16:56:07.771Z,13.30
2017-11-04T16:58:35.244Z,13.20
2017-11-04T17:01:02.732Z,13.20
2017-11-04T17:03:30.204Z,13.10
2017-11-04T17:05:58.473Z,12.90
2017-11-04T17:08:26.850Z,12.80
2017-11-04T17:10:55.134Z,12.80
2017-11-04T17:13:22.663Z,12.80
2017-11-04T17:15:50.243Z,12.80
2017-11-04T17:18:18.524Z,12.60
2017-11-04T17:20:46.850Z,12.50
2017-11-04T17:23:14.358Z,12.50
2017-11-04T17:25:42.642Z,12.30
2017-11-04T17:28:10.735Z,12.30
2017-11-04T17:30:38.294Z,12.20
2017-11-04T17:33:05.773Z,12.20
2017-11-04T17:35:33.345Z,12.10
2017-11-04T17:38:00.861Z,11.90
2017-11-04T17:40:28.374Z,11.80
2017-11-04T17:42:55.870Z,11.80
2017-11-04T17:45:24.171Z,11.80
2017-11-04T17:47:51.714Z,11.80
2017-11-04T17:50:19.231Z,11.80
2017-11-04T17:52:46.800Z,11.90
2017-11-04T17:55:15.054Z,11.90
2017-11-04T17:57:42.526Z,11.80
2017-11-04T18:00:10.018Z,12.00
2017-11-04T18:02:37.493Z,12.00
2017-11-04T18:05:04.963Z,12.10
2017-11-04T18:07:32.457Z,12.00
2017-11-04T18:09:59.929Z,11.90
2017-11-04T18:12:28.169Z,11.70
2017-11-04T18:14:55.661Z,11.60
2017-11-04T18:17:23.930Z,11.80
2017-11-04T18:20:02.281Z,11.80
2017-11-04T18:22:29.786Z,11.80
2017-11-04T18:24:57.290Z,11.90
2017-11-04T18:27:24.823Z,11.90
2017-11-04T18:29:53.103Z,11.70
2017-11-04T18:32:22.691Z,11.90
2017-11-04T18:34:50.221Z,11.90
2017-11-04T18:37:17.726Z,12.00
2017-11-04T18:39:46.031Z,11.90
2017-11-04T18:42:13.645Z,11.90
2017-11-04T18:44:41.969Z,12.00
2017-11-04T18:47:09.506Z,11.90
2017-11-04T18:49:42.057Z,12.00
2017-11-04T18:52:10.358Z,11.80
2017-11-04T18:54:37.865Z,11.80
2017-11-04T18:57:05.383Z,11.50
2017-11-04T18:59:33.166Z,11.30
2017-11-04T19:02:00.637Z,11.20
2017-11-04T19:04:28.133Z,11.10
2017-11-04T19:06:56.365Z,10.80
2017-11-04T19:09:23.926Z,10.70
2017-11-04T19:11:51.453Z,10.70
2017-11-04T19:14:18.935Z,10.70
2017-11-04T19:16:46.406Z,10.60
2017-11-04T19:19:13.907Z,10.60
2017-11-04T19:21:41.390Z,10.50
2017-11-04T19:24:08.866Z,10.50
2017-11-04T19:26:36.366Z,10.50
2017-11-04T19:29:05.607Z,10.30
2017-11-04T19:31:33.089Z,10.40
2017-11-04T19:34:00.579Z,10.30
2017-11-04T19:36:28.820Z,10.10
2017-11-04T19:38:56.319Z,10.10
2017-11-04T19:41:24.555Z,9.90
2017-11-04T19:43:52.100Z,9.90
2017-11-04T19:46:19.589Z,9.90
2017-11-04T19:48:47.085Z,9.90
2017-11-04T19:51:14.545Z,9.90
2017-11-04T19:53:42.037Z,9.90
2017-11-04T19:56:09.505Z,9.90
2017-11-04T19:58:36.985Z,9.90
2017-11-04T20:01:04.483Z,9.90
2017-11-04T20:03:31.954Z,9.80
2017-11-04T20:05:59.418Z,9.70
2017-11-04T20:08:27.675Z,9.70
2017-11-04T20:10:55.212Z,9.60
2017-11-04T20:13:22.752Z,9.60
2017-11-04T20:15:50.452Z,9.60
2017-11-04T20:18:17.939Z,9.60
2017-11-04T20:20:46.496Z,9.50
2017-11-04T20:23:13.964Z,9.50
2017-11-04T20:25:42.376Z,9.50
2017-11-04T20:28:10.098Z,9.50
2017-11-04T20:30:37.601Z,9.40
2017-11-04T20:33:05.085Z,9.20
2017-11-04T20:35:33.318Z,9.30
2017-11-04T20:38:00.786Z,9.30
2017-11-04T20:40:28.273Z,9.30
2017-11-04T20:42:56.786Z,9.30
2017-11-04T20:45:24.302Z,9.20
2017-11-04T20:47:52.561Z,9.20
2017-11-04T20:50:20.034Z,9.20
2017-11-04T20:52:48.310Z,9.20
2017-11-04T20:55:16.584Z,9.10
2017-11-04T20:57:44.101Z,9.10
2017-11-04T21:00:11.589Z,9.10
2017-11-04T21:02:39.062Z,9.00
2017-11-04T21:05:07.301Z,8.90
2017-11-04T21:07:34.790Z,8.90
2017-11-04T21:10:03.037Z,8.70
2017-11-04T21:12:30.510Z,8.70
2017-11-04T21:14:58.764Z,8.60
2017-11-04T21:17:26.237Z,8.60
2017-11-04T21:19:53.734Z,8.60
2017-11-04T21:22:21.206Z,8.60
2017-11-04T21:24:49.977Z,8.60
2017-11-04T21:27:17.471Z,8.60
2017-11-04T21:29:44.949Z,8.60
2017-11-04T21:32:12.469Z,8.60
2017-11-04T21:34:39.957Z,8.50
2017-11-04T21:37:07.438Z,8.50
2017-11-04T21:39:35.690Z,8.40
2017-11-04T21:42:03.185Z,8.40
2017-11-04T21:44:31.698Z,8.40
2017-11-04T21:46:59.169Z,8.30
2017-11-04T21:49:26.661Z,8.30
2017-11-04T21:51:54.129Z,8.30
2017-11-04T21:54:22.373Z,8.20
2017-11-04T21:56:49.913Z,8.20
2017-11-04T21:59:17.416Z,8.20
2017-11-04T22:01:45.689Z,8.10
2017-11-04T22:04:13.157Z,8.10
2017-11-04T22:06:41.394Z,8.10
2017-11-04T22:09:08.894Z,8.00
2017-11-04T22:11:37.126Z,8.00
2017-11-04T22:14:05.069Z,8.00
2017-11-04T22:16:32.581Z,8.00
2017-11-04T22:19:00.826Z,7.90
2017-11-04T22:21:28.299Z,7.90
2017-11-04T22:23:55.797Z,7.90
2017-11-04T22:26:23.310Z,7.80
2017-11-04T22:28:50.818Z,7.90
2017-11-04T22:31:18.290Z,7.80
2017-11-04T22:33:45.769Z,7.80
2017-11-04T22:36:13.265Z,7.80
2017-11-04T22:38:41.501Z,7.80
2017-11-04T22:41:08.998Z,7.80
2017-11-04T22:43:37.233Z,7.80
2017-11-04T22:46:04.709Z,7.80
2017-11-04T22:48:32.213Z,7.70
2017-11-04T22:50:59.684Z,7.60
2017-11-04T22:53:27.158Z,7.60
2017-11-04T22:55:54.649Z,7.60
2017-11-04T22:58:22.890Z,7.60
2017-11-04T23:00:50.376Z,7.50
2017-11-04T23:03:17.846Z,7.60
2017-11-04T23:05:46.093Z,7.60
2017-11-04T23:08:13.594Z,7.60
2017-11-04T23:10:41.078Z,7.60
2017-11-04T23:13:08.549Z,7.70
2017-11-04T23:15:36.038Z,7.70
2017-11-04T23:18:03.753Z,7.70
2017-11-04T23:20:31.221Z,7.60
2017-11-04T23:22:58.717Z,7.60
2017-11-04T23:25:26.329Z,7.60
2017-11-04T23:27:53.806Z,7.50
2017-11-04T23:30:21.298Z,7.50
2017-11-04T23:32:49.533Z,7.60
2017-11-04T23:35:17.000Z,7.60
2017-11-04T23:37:44.494Z,7.60
2017-11-04T23:40:12.737Z,7.60
2017-11-04T23:42:40.474Z,7.60
2017-11-04T23:45:07.949Z,7.60
2017-11-04T23:47:35.421Z,7.50
2017-11-04T23:50:02.930Z,7.50
2017-11-04T23:52:30.404Z,7.40
2017-11-04T23:54:57.874Z,7.40
2017-11-04T23:57:25.373Z,7.30
2017-11-04T23:59:53.609Z,7.30
